Time;durP1;ratioP1;P1;durP2;ratioP2;P2;SDS_P1;SDS_P2;PMS_P1;PMS_P2;Temp;Humidity;BMP_temperature;BMP_pressure;BME280_temperature;BME280_humidity;BME280_pressure;Samples;Min_cycle;Max_cycle;Signal;HPM_P1;HPM_P2
2023/10/14 00:00:53;;;;;;;3.45;1.00;;;;;;;;;;4998525;28;25063;-76
2023/10/14 00:03:35;;;;;;;3.55;0.90;;;;;;;;;;4981222;28;25050;-77
2023/10/14 00:06:05;;;;;;;5.20;1.07;;;;;;;;;;4995204;28;25148;-77
2023/10/14 00:08:31;;;;;;;3.80;1.02;;;;;;;;;;4979587;28;25049;-76
2023/10/14 00:11:02;;;;;;;5.93;1.40;;;;;;;;;;4981040;28;25092;-77
2023/10/14 00:13:31;;;;;;;7.50;1.30;;;;;;;;;;4996008;28;25054;-76
2023/10/14 00:16:02;;;;;;;4.28;1.05;;;;;;;;;;4978797;28;25084;-78
2023/10/14 00:18:28;;;;;;;9.38;1.05;;;;;;;;;;4998724;28;25072;-77
2023/10/14 00:20:54;;;;;;;5.47;1.23;;;;;;;;;;4987649;28;25052;-77
2023/10/14 00:23:26;;;;;;;7.30;1.83;;;;;;;;;;5005524;28;25054;-76
2023/10/14 00:25:54;;;;;;;6.38;1.05;;;;;;;;;;4980210;28;25076;-78
2023/10/14 00:28:20;;;;;;;13.82;1.58;;;;;;;;;;4979234;28;25052;-79
2023/10/14 00:30:47;;;;;;;8.85;1.45;;;;;;;;;;4998295;28;25064;-79
2023/10/14 00:33:13;;;;;;;8.55;1.25;;;;;;;;;;4996258;28;25104;-78
2023/10/14 00:35:41;;;;;;;8.35;1.52;;;;;;;;;;4991194;28;25052;-78
2023/10/14 00:38:13;;;;;;;8.77;1.33;;;;;;;;;;4975943;28;25130;-80
2023/10/14 00:40:41;;;;;;;6.13;1.65;;;;;;;;;;4987204;28;25093;-77
2023/10/14 00:43:07;;;;;;;8.52;1.63;;;;;;;;;;4977504;28;25087;-77
2023/10/14 00:45:42;;;;;;;5.97;1.55;;;;;;;;;;4988832;28;25063;-80
2023/10/14 00:48:08;;;;;;;10.93;1.90;;;;;;;;;;4997584;28;25059;-79
2023/10/14 00:50:35;;;;;;;7.78;1.98;;;;;;;;;;5003741;28;25070;-82
2023/10/14 00:53:05;;;;;;;12.40;2.08;;;;;;;;;;5006866;28;25049;-78
2023/10/14 00:58:12;;;;;;;10.77;2.33;;;;;;;;;;4997441;28;25074;-79
2023/10/14 01:00:46;;;;;;;10.38;1.80;;;;;;;;;;5005569;28;25158;-78
2023/10/14 01:03:15;;;;;;;7.57;1.80;;;;;;;;;;4991253;28;25059;-80
2023/10/14 01:05:41;;;;;;;9.88;2.20;;;;;;;;;;4997387;28;25071;-78
2023/10/14 01:08:13;;;;;;;20.17;2.72;;;;;;;;;;4992567;28;25055;-79
2023/10/14 01:10:41;;;;;;;11.35;2.30;;;;;;;;;;4979350;28;25073;-78
2023/10/14 01:13:13;;;;;;;7.93;1.73;;;;;;;;;;5003964;28;25051;-78
2023/10/14 01:15:43;;;;;;;14.30;2.20;;;;;;;;;;5003738;28;25059;-79
2023/10/14 01:18:11;;;;;;;13.05;3.28;;;;;;;;;;5000628;28;25056;-80
2023/10/14 01:20:38;;;;;;;14.95;2.55;;;;;;;;;;4998837;28;25093;-79
2023/10/14 01:23:38;;;;;;;18.38;3.40;;;;;;;;;;4994245;28;25107;-80
2023/10/14 01:26:03;;;;;;;10.13;2.25;;;;;;;;;;5009407;28;25067;-80
2023/10/14 01:28:29;;;;;;;11.70;2.10;;;;;;;;;;4996867;28;25071;-78
2023/10/14 01:30:55;;;;;;;13.18;2.85;;;;;;;;;;4977561;28;25073;-77
2023/10/14 01:33:25;;;;;;;8.05;1.90;;;;;;;;;;4991507;28;25073;-80
2023/10/14 01:35:54;;;;;;;22.98;2.80;;;;;;;;;;5003486;28;25063;-80
2023/10/14 01:38:23;;;;;;;12.93;2.13;;;;;;;;;;4976559;28;25054;-78
2023/10/14 01:40:50;;;;;;;18.02;2.85;;;;;;;;;;4989359;28;25078;-77
2023/10/14 01:43:16;;;;;;;7.82;2.75;;;;;;;;;;5000836;28;25051;-77
2023/10/14 01:45:49;;;;;;;13.88;3.63;;;;;;;;;;4998087;28;25055;-76
2023/10/14 01:48:19;;;;;;;15.68;2.88;;;;;;;;;;4983052;28;25053;-77
2023/10/14 01:50:54;;;;;;;13.57;2.42;;;;;;;;;;4977628;28;25047;-77
2023/10/14 01:53:23;;;;;;;14.27;2.47;;;;;;;;;;4993336;28;25053;-77
2023/10/14 01:55:52;;;;;;;17.95;3.13;;;;;;;;;;5000540;28;25078;-77
2023/10/14 01:58:22;;;;;;;11.40;2.53;;;;;;;;;;4989107;28;25060;-77
2023/10/14 02:03:50;;;;;;;20.73;3.35;;;;;;;;;;4988444;28;25047;-76
2023/10/14 02:06:18;;;;;;;12.07;2.60;;;;;;;;;;4978507;28;25085;-78
2023/10/14 02:08:44;;;;;;;13.82;2.65;;;;;;;;;;4990445;28;25078;-78
2023/10/14 02:11:10;;;;;;;10.93;2.25;;;;;;;;;;4998536;28;25080;-77
2023/10/14 02:13:37;;;;;;;12.85;2.53;;;;;;;;;;4994549;28;25118;-76
2023/10/14 02:16:09;;;;;;;10.25;3.00;;;;;;;;;;4997412;28;25159;-77
2023/10/14 02:18:38;;;;;;;;;;;;;;;;;;4989370;28;25055;-78
2023/10/14 02:21:16;;;;;;;16.23;2.83;;;;;;;;;;4997634;28;25068;-77
2023/10/14 02:23:45;;;;;;;9.07;1.92;;;;;;;;;;4997144;28;25057;-77
2023/10/14 02:26:15;;;;;;;12.63;1.83;;;;;;;;;;4995020;28;25057;-76
2023/10/14 02:28:45;;;;;;;11.27;2.20;;;;;;;;;;5000078;28;25065;-77
2023/10/14 02:31:17;;;;;;;23.35;3.65;;;;;;;;;;4993271;28;25077;-76
2023/10/14 02:33:45;;;;;;;9.20;1.80;;;;;;;;;;4991248;28;25076;-77
2023/10/14 02:36:15;;;;;;;7.90;1.63;;;;;;;;;;4991148;28;25058;-76
2023/10/14 02:38:42;;;;;;;12.20;2.20;;;;;;;;;;4992836;28;25071;-75
2023/10/14 02:41:08;;;;;;;11.98;2.50;;;;;;;;;;4996221;28;25079;-76
2023/10/14 02:43:37;;;;;;;13.25;2.72;;;;;;;;;;5002780;28;25103;-78
2023/10/14 02:46:10;;;;;;;16.52;3.28;;;;;;;;;;5001567;28;25059;-77
2023/10/14 02:48:55;;;;;;;13.80;2.15;;;;;;;;;;4994822;28;25045;-75
2023/10/14 02:51:32;;;;;;;14.85;2.80;;;;;;;;;;5001600;28;25083;-75
2023/10/14 02:54:05;;;;;;;15.88;2.65;;;;;;;;;;4991348;28;25064;-75
2023/10/14 02:56:45;;;;;;;16.13;2.42;;;;;;;;;;4994573;28;25133;-75
2023/10/14 02:59:16;;;;;;;13.82;1.95;;;;;;;;;;4999518;28;25131;-76
2023/10/14 03:01:44;;;;;;;17.75;3.10;;;;;;;;;;4978053;28;25086;-76
2023/10/14 03:04:12;;;;;;;8.77;2.38;;;;;;;;;;4994429;28;25100;-77
2023/10/14 03:06:46;;;;;;;19.27;2.63;;;;;;;;;;4973313;28;25082;-76
2023/10/14 03:09:19;;;;;;;22.17;2.95;;;;;;;;;;4993553;28;25063;-75
2023/10/14 03:11:47;;;;;;;6.40;1.92;;;;;;;;;;5003196;28;25049;-72
2023/10/14 03:14:15;;;;;;;10.30;2.38;;;;;;;;;;4977090;28;25073;-75
2023/10/14 03:16:41;;;;;;;8.68;1.75;;;;;;;;;;5001532;28;25198;-75
2023/10/14 03:19:07;;;;;;;13.30;2.15;;;;;;;;;;5002942;28;25077;-74
2023/10/14 03:21:40;;;;;;;7.75;1.55;;;;;;;;;;4995978;28;25136;-75
2023/10/14 03:24:07;;;;;;;15.75;2.20;;;;;;;;;;4978926;28;25052;-72
2023/10/14 03:26:33;;;;;;;14.98;2.30;;;;;;;;;;4993666;28;25066;-74
2023/10/14 03:29:05;;;;;;;15.13;2.92;;;;;;;;;;4975470;28;25059;-74
2023/10/14 03:31:35;;;;;;;8.73;1.67;;;;;;;;;;4989968;28;25068;-73
2023/10/14 03:34:08;;;;;;;9.45;2.10;;;;;;;;;;4996794;28;25063;-75
2023/10/14 03:36:35;;;;;;;12.73;2.42;;;;;;;;;;5003242;28;25068;-73
2023/10/14 03:39:17;;;;;;;13.23;2.33;;;;;;;;;;4998346;28;25048;-74
2023/10/14 03:41:43;;;;;;;;;;;;;;;;;;4995968;28;25047;-74
2023/10/14 03:44:10;;;;;;;12.73;2.00;;;;;;;;;;4993591;28;25074;-74
2023/10/14 03:46:39;;;;;;;8.38;1.70;;;;;;;;;;5000969;28;25092;-74
2023/10/14 03:49:06;;;;;;;16.58;2.45;;;;;;;;;;4971683;28;25120;-72
2023/10/14 03:51:33;;;;;;;9.55;2.17;;;;;;;;;;4994807;28;25153;-74
2023/10/14 03:54:08;;;;;;;9.77;2.22;;;;;;;;;;4999996;28;25064;-72
2023/10/14 03:56:35;;;;;;;10.38;1.65;;;;;;;;;;4999315;28;25134;-73
2023/10/14 03:59:02;;;;;;;10.10;1.75;;;;;;;;;;4998164;28;25063;-73
2023/10/14 04:01:34;;;;;;;10.82;2.20;;;;;;;;;;4975413;28;25066;-74
2023/10/14 04:04:14;;;;;;;6.32;2.63;;;;;;;;;;4995505;28;25109;-72
2023/10/14 04:06:41;;;;;;;10.60;2.50;;;;;;;;;;4989850;28;25092;-74
2023/10/14 04:09:10;;;;;;;10.77;2.00;;;;;;;;;;4997704;28;25056;-72
2023/10/14 04:11:39;;;;;;;17.70;2.63;;;;;;;;;;4997206;28;25126;-73
2023/10/14 04:14:08;;;;;;;10.15;1.98;;;;;;;;;;4997498;28;25069;-72
2023/10/14 04:22:01;;;;;;;13.55;1.90;;;;;;;;;;4990945;28;25048;-74
2023/10/14 04:27:29;;;;;;;11.43;2.30;;;;;;;;;;4995682;28;25070;-73
2023/10/14 04:30:11;;;;;;;9.77;2.58;;;;;;;;;;4994935;28;25149;-72
2023/10/14 04:32:48;;;;;;;19.88;3.17;;;;;;;;;;4995814;28;25071;-72
2023/10/14 04:35:14;;;;;;;10.32;2.47;;;;;;;;;;4999869;28;25077;-74
2023/10/14 04:37:52;;;;;;;12.57;2.90;;;;;;;;;;4997075;28;25074;-73
2023/10/14 04:43:19;;;;;;;19.58;2.88;;;;;;;;;;4993894;28;25111;-74
2023/10/14 04:45:52;;;;;;;17.80;3.53;;;;;;;;;;4964352;28;25049;-72
2023/10/14 04:48:27;;;;;;;24.63;3.60;;;;;;;;;;4997862;28;25070;-73
2023/10/14 04:50:56;;;;;;;15.48;2.50;;;;;;;;;;4978909;28;25130;-73
2023/10/14 04:53:26;;;;;;;18.02;3.28;;;;;;;;;;4995333;28;25089;-73
2023/10/14 04:55:52;;;;;;;15.45;2.95;;;;;;;;;;4993664;28;25127;-74
2023/10/14 04:58:24;;;;;;;20.00;3.13;;;;;;;;;;4996449;28;25056;-71
2023/10/14 05:00:52;;;;;;;13.57;2.65;;;;;;;;;;5002908;28;25081;-72
2023/10/14 05:03:19;;;;;;;14.98;3.15;;;;;;;;;;4996161;28;25062;-74
2023/10/14 05:05:46;;;;;;;13.93;2.95;;;;;;;;;;4979883;28;25068;-72
2023/10/14 05:08:21;;;;;;;16.25;2.83;;;;;;;;;;4997880;28;25044;-74
2023/10/14 05:10:50;;;;;;;16.08;3.28;;;;;;;;;;5001909;28;25154;-72
2023/10/14 05:13:19;;;;;;;20.13;3.25;;;;;;;;;;4993665;28;25047;-74
2023/10/14 05:15:52;;;;;;;22.38;2.97;;;;;;;;;;4997378;28;25067;-74
2023/10/14 05:18:27;;;;;;;15.65;3.22;;;;;;;;;;4991468;28;25134;-73
2023/10/14 05:23:19;;;;;;;18.30;3.13;;;;;;;;;;5001903;28;25085;-72
2023/10/14 05:25:49;;;;;;;15.77;2.75;;;;;;;;;;5006001;28;25064;-72
2023/10/14 05:28:16;;;;;;;23.67;3.08;;;;;;;;;;5001080;28;25146;-73
2023/10/14 05:30:46;;;;;;;22.75;4.45;;;;;;;;;;4994660;28;25053;-75
2023/10/14 05:33:14;;;;;;;23.60;3.97;;;;;;;;;;4993590;28;25071;-73
2023/10/14 05:35:43;;;;;;;21.83;3.55;;;;;;;;;;4966466;28;25095;-73
2023/10/14 05:38:10;;;;;;;18.63;3.38;;;;;;;;;;4997288;28;25070;-72
2023/10/14 05:40:39;;;;;;;19.58;2.95;;;;;;;;;;4993690;28;25052;-74
2023/10/14 05:43:08;;;;;;;14.80;2.95;;;;;;;;;;5000258;28;25106;-72
2023/10/14 05:45:35;;;;;;;12.18;3.67;;;;;;;;;;5003610;28;25055;-69
2023/10/14 05:48:03;;;;;;;17.67;3.05;;;;;;;;;;4988789;28;25069;-71
2023/10/14 05:50:29;;;;;;;24.88;3.50;;;;;;;;;;4994200;28;25041;-73
2023/10/14 05:52:55;;;;;;;21.27;3.67;;;;;;;;;;4977332;28;25053;-73
2023/10/14 05:55:21;;;;;;;21.33;3.53;;;;;;;;;;4985260;28;25059;-71
2023/10/14 05:57:47;;;;;;;18.83;2.75;;;;;;;;;;4993919;28;25060;-71
2023/10/14 06:00:20;;;;;;;19.83;4.10;;;;;;;;;;4986635;28;25053;-73
2023/10/14 06:02:47;;;;;;;19.00;3.20;;;;;;;;;;4991309;28;25113;-70
2023/10/14 06:05:16;;;;;;;15.38;3.25;;;;;;;;;;4995044;28;25065;-72
2023/10/14 06:07:47;;;;;;;16.13;3.45;;;;;;;;;;4981181;28;25097;-71
2023/10/14 06:10:14;;;;;;;21.83;3.95;;;;;;;;;;4995239;28;25066;-72
2023/10/14 06:12:44;;;;;;;30.83;3.30;;;;;;;;;;4986004;28;25093;-73
2023/10/14 06:15:10;;;;;;;20.02;3.30;;;;;;;;;;4990131;28;25115;-73
2023/10/14 06:17:38;;;;;;;12.68;2.92;;;;;;;;;;4999550;28;25101;-72
2023/10/14 06:20:05;;;;;;;20.95;2.92;;;;;;;;;;4997370;28;25128;-71
2023/10/14 06:22:31;;;;;;;17.98;3.00;;;;;;;;;;4979522;28;25073;-73
2023/10/14 06:24:57;;;;;;;14.50;2.50;;;;;;;;;;4989455;28;25097;-73
2023/10/14 06:27:24;;;;;;;17.30;3.72;;;;;;;;;;4993241;28;25064;-75
2023/10/14 06:29:51;;;;;;;13.60;2.60;;;;;;;;;;4995463;28;25051;-72
2023/10/14 06:32:18;;;;;;;18.95;2.42;;;;;;;;;;4996486;28;25069;-73
2023/10/14 06:34:46;;;;;;;14.27;2.90;;;;;;;;;;5002526;28;25061;-73
2023/10/14 06:37:12;;;;;;;13.18;2.70;;;;;;;;;;4990408;28;25066;-75
2023/10/14 06:39:40;;;;;;;12.05;2.97;;;;;;;;;;4997599;28;25049;-73
2023/10/14 06:42:06;;;;;;;18.48;2.65;;;;;;;;;;4986976;28;25058;-72
2023/10/14 06:44:32;;;;;;;18.90;3.53;;;;;;;;;;4999923;28;25062;-73
2023/10/14 06:46:58;;;;;;;19.95;2.63;;;;;;;;;;4993830;28;25074;-74
2023/10/14 06:49:32;;;;;;;19.75;3.40;;;;;;;;;;4971876;28;25144;-71
2023/10/14 06:51:59;;;;;;;19.70;3.58;;;;;;;;;;4997358;28;25116;-73
2023/10/14 06:54:30;;;;;;;19.85;3.10;;;;;;;;;;4994081;28;25054;-74
2023/10/14 06:56:56;;;;;;;18.33;2.97;;;;;;;;;;4997496;28;25093;-71
2023/10/14 06:59:22;;;;;;;22.58;2.90;;;;;;;;;;4994201;28;25075;-73
2023/10/14 07:01:48;;;;;;;10.05;2.45;;;;;;;;;;4992393;28;25057;-72
2023/10/14 07:04:16;;;;;;;16.05;2.75;;;;;;;;;;4997140;28;25052;-75
2023/10/14 07:06:49;;;;;;;16.48;3.05;;;;;;;;;;5002275;28;25059;-74
2023/10/14 07:09:18;;;;;;;20.98;2.75;;;;;;;;;;4999631;28;25082;-73
2023/10/14 07:11:45;;;;;;;17.50;3.15;;;;;;;;;;4989733;28;25070;-73
2023/10/14 07:14:12;;;;;;;11.10;2.72;;;;;;;;;;4991640;28;25088;-73
2023/10/14 07:16:38;;;;;;;12.95;2.42;;;;;;;;;;4997044;28;25064;-71
2023/10/14 07:19:04;;;;;;;16.92;3.30;;;;;;;;;;4998663;28;25123;-73
2023/10/14 07:21:42;;;;;;;11.77;2.28;;;;;;;;;;4994747;28;25171;-73
2023/10/14 07:24:08;;;;;;;20.90;4.45;;;;;;;;;;4985057;28;25091;-72
2023/10/14 07:26:39;;;;;;;18.55;3.45;;;;;;;;;;4992822;28;25064;-73
2023/10/14 07:29:08;;;;;;;12.55;3.05;;;;;;;;;;4992400;28;25091;-72
2023/10/14 07:31:36;;;;;;;19.30;3.53;;;;;;;;;;4987156;28;25058;-73
2023/10/14 07:34:03;;;;;;;11.98;2.60;;;;;;;;;;4998911;28;25074;-73
2023/10/14 07:36:32;;;;;;;15.23;2.83;;;;;;;;;;5003080;28;25059;-73
2023/10/14 07:39:04;;;;;;;23.83;3.80;;;;;;;;;;5000994;28;25078;-73
2023/10/14 07:41:30;;;;;;;;;;;;;;;;;;4995692;28;25076;-73
2023/10/14 07:43:56;;;;;;;16.83;2.53;;;;;;;;;;4998069;28;24077;-72
2023/10/14 07:46:23;;;;;;;11.63;2.80;;;;;;;;;;5003139;28;25089;-73
2023/10/14 07:48:53;;;;;;;13.38;2.20;;;;;;;;;;4999926;28;25084;-73
2023/10/14 07:51:19;;;;;;;15.02;3.13;;;;;;;;;;4991030;28;25081;-72
2023/10/14 07:53:45;;;;;;;15.43;3.75;;;;;;;;;;4999192;28;25123;-72
2023/10/14 07:56:10;;;;;;;15.07;3.28;;;;;;;;;;5002031;28;25128;-73
2023/10/14 07:58:38;;;;;;;11.20;2.60;;;;;;;;;;4996689;28;25065;-73
2023/10/14 08:01:06;;;;;;;20.95;3.15;;;;;;;;;;4995165;28;25066;-71
2023/10/14 08:03:32;;;;;;;14.55;2.92;;;;;;;;;;4998471;28;25066;-72
2023/10/14 08:05:59;;;;;;;13.18;2.50;;;;;;;;;;4996111;28;25074;-72
2023/10/14 08:08:30;;;;;;;17.08;2.75;;;;;;;;;;4978943;28;25118;-73
2023/10/14 08:10:57;;;;;;;10.68;2.28;;;;;;;;;;5005274;28;25080;-72
2023/10/14 08:13:23;;;;;;;18.95;3.00;;;;;;;;;;5003295;28;25076;-73
2023/10/14 08:15:50;;;;;;;17.08;2.45;;;;;;;;;;4992875;28;25075;-73
2023/10/14 08:18:17;;;;;;;12.10;2.40;;;;;;;;;;4978834;28;25078;-74
2023/10/14 08:20:43;;;;;;;16.83;2.72;;;;;;;;;;5002377;28;25092;-75
2023/10/14 08:23:10;;;;;;;18.52;3.13;;;;;;;;;;4993180;28;25058;-73
2023/10/14 08:25:37;;;;;;;11.60;2.60;;;;;;;;;;4990527;28;25080;-71
2023/10/14 08:28:06;;;;;;;13.18;2.58;;;;;;;;;;5000811;28;25078;-72
2023/10/14 08:30:34;;;;;;;15.25;2.78;;;;;;;;;;4997527;28;25064;-71
2023/10/14 08:33:03;;;;;;;15.57;2.65;;;;;;;;;;5001343;28;25102;-73
2023/10/14 08:35:29;;;;;;;8.65;2.40;;;;;;;;;;4997934;28;25064;-72
2023/10/14 08:37:57;;;;;;;14.13;2.60;;;;;;;;;;4997403;28;25089;-71
2023/10/14 08:40:25;;;;;;;18.48;3.53;;;;;;;;;;4999418;28;25070;-76
2023/10/14 08:43:02;;;;;;;14.73;2.83;;;;;;;;;;5006895;28;25056;-73
2023/10/14 08:45:35;;;;;;;12.02;3.00;;;;;;;;;;5000697;28;25091;-74
2023/10/14 08:48:02;;;;;;;15.45;2.72;;;;;;;;;;4997344;28;25073;-71
2023/10/14 08:50:29;;;;;;;12.70;2.28;;;;;;;;;;5000284;28;25077;-72
2023/10/14 08:52:56;;;;;;;15.93;3.22;;;;;;;;;;4999231;28;25051;-74
2023/10/14 08:55:23;;;;;;;15.15;2.80;;;;;;;;;;4998040;28;25079;-74
2023/10/14 08:57:50;;;;;;;10.70;2.80;;;;;;;;;;4995460;28;25116;-74
2023/10/14 09:00:20;;;;;;;14.30;3.28;;;;;;;;;;4996405;28;25074;-71
2023/10/14 09:02:48;;;;;;;20.95;3.65;;;;;;;;;;4993834;28;25076;-73
2023/10/14 09:05:16;;;;;;;19.77;3.67;;;;;;;;;;4978917;28;25097;-75
2023/10/14 09:07:43;;;;;;;13.20;2.10;;;;;;;;;;4994993;28;25060;-73
2023/10/14 09:10:09;;;;;;;11.63;2.38;;;;;;;;;;4992341;28;25092;-71
2023/10/14 09:12:36;;;;;;;10.32;2.28;;;;;;;;;;4960782;28;25057;-72
2023/10/14 09:15:02;;;;;;;14.93;3.22;;;;;;;;;;4997613;28;25091;-74
2023/10/14 09:17:29;;;;;;;15.63;3.25;;;;;;;;;;4986769;28;25091;-72
2023/10/14 09:19:55;;;;;;;21.33;3.38;;;;;;;;;;4989707;28;25061;-75
2023/10/14 09:22:22;;;;;;;17.50;2.70;;;;;;;;;;4989478;28;25078;-73
2023/10/14 09:24:49;;;;;;;16.23;3.13;;;;;;;;;;4998543;28;25091;-71
2023/10/14 09:27:16;;;;;;;9.30;2.10;;;;;;;;;;4991419;28;25077;-72
2023/10/14 09:29:43;;;;;;;15.18;2.28;;;;;;;;;;4996778;28;25124;-73
2023/10/14 09:32:09;;;;;;;15.50;2.85;;;;;;;;;;4977032;28;25101;-73
2023/10/14 09:34:35;;;;;;;12.88;2.58;;;;;;;;;;4994102;28;25095;-72
2023/10/14 09:37:10;;;;;;;14.68;2.70;;;;;;;;;;4993136;28;25091;-72
2023/10/14 09:39:39;;;;;;;12.23;2.38;;;;;;;;;;4995342;28;25049;-71
2023/10/14 09:42:06;;;;;;;7.60;2.55;;;;;;;;;;4995255;28;25066;-72
2023/10/14 09:44:33;;;;;;;16.05;2.78;;;;;;;;;;4994535;28;25137;-72
2023/10/14 09:47:00;;;;;;;8.63;2.00;;;;;;;;;;4990841;28;25088;-72
2023/10/14 09:49:26;;;;;;;11.82;2.22;;;;;;;;;;4992338;28;25157;-74
2023/10/14 09:51:53;;;;;;;13.77;2.85;;;;;;;;;;4997383;28;25059;-73
2023/10/14 09:54:21;;;;;;;8.88;2.38;;;;;;;;;;4980426;28;25058;-74
2023/10/14 09:56:50;;;;;;;12.88;2.17;;;;;;;;;;4997669;28;25348;-72
2023/10/14 09:59:17;;;;;;;11.80;2.00;;;;;;;;;;4993877;28;25073;-73
2023/10/14 10:01:43;;;;;;;8.50;1.85;;;;;;;;;;5001778;28;25071;-72
2023/10/14 10:04:13;;;;;;;10.07;2.63;;;;;;;;;;4999939;28;25068;-73
2023/10/14 10:06:47;;;;;;;12.75;2.08;;;;;;;;;;5000306;28;25158;-73
2023/10/14 10:09:19;;;;;;;6.75;1.90;;;;;;;;;;4975707;28;25087;-75
2023/10/14 10:11:47;;;;;;;11.85;2.72;;;;;;;;;;4996004;28;25077;-72
2023/10/14 10:14:17;;;;;;;9.38;1.98;;;;;;;;;;4998203;28;25068;-73
2023/10/14 10:16:46;;;;;;;7.25;1.65;;;;;;;;;;4993341;28;30571;-73
2023/10/14 10:19:13;;;;;;;13.82;2.25;;;;;;;;;;4994174;28;25066;-74
2023/10/14 10:21:43;;;;;;;13.65;2.45;;;;;;;;;;4963117;28;25080;-74
2023/10/14 10:24:34;;;;;;;9.18;2.25;;;;;;;;;;4977784;28;25062;-72
2023/10/14 10:27:03;;;;;;;16.60;2.58;;;;;;;;;;4981365;28;25067;-74
2023/10/14 10:29:33;;;;;;;11.10;2.05;;;;;;;;;;4981762;28;25070;-72
2023/10/14 10:32:09;;;;;;;12.60;2.78;;;;;;;;;;4983752;28;25111;-72
2023/10/14 10:34:55;;;;;;;16.48;3.40;;;;;;;;;;5001181;28;25082;-75
2023/10/14 10:37:21;;;;;;;10.68;2.08;;;;;;;;;;4982774;28;25059;-73
2023/10/14 10:39:50;;;;;;;15.77;3.05;;;;;;;;;;4998156;28;25119;-73
2023/10/14 10:42:17;;;;;;;14.15;2.90;;;;;;;;;;4998212;28;25060;-72
2023/10/14 10:44:43;;;;;;;10.18;1.95;;;;;;;;;;4996373;28;25152;-73
2023/10/14 10:47:15;;;;;;;7.97;2.17;;;;;;;;;;4995347;28;25097;-73
2023/10/14 10:49:58;;;;;;;9.95;2.63;;;;;;;;;;4998320;28;25062;-72
2023/10/14 10:52:25;;;;;;;7.78;2.00;;;;;;;;;;4993096;28;25068;-72
2023/10/14 10:54:53;;;;;;;11.07;2.30;;;;;;;;;;5001263;28;25061;-74
2023/10/14 10:57:19;;;;;;;14.40;2.72;;;;;;;;;;5001318;28;25047;-72
2023/10/14 10:59:46;;;;;;;7.97;2.08;;;;;;;;;;4998073;28;25087;-74
2023/10/14 11:02:13;;;;;;;13.73;2.42;;;;;;;;;;4999271;28;25061;-73
2023/10/14 11:04:41;;;;;;;13.02;2.10;;;;;;;;;;4994983;28;25103;-70
2023/10/14 11:07:11;;;;;;;8.98;2.40;;;;;;;;;;4991925;28;25077;-68
2023/10/14 11:09:39;;;;;;;7.25;1.92;;;;;;;;;;4976936;28;25076;-71
2023/10/14 11:12:05;;;;;;;16.77;3.95;;;;;;;;;;4997068;28;25135;-72
2023/10/14 11:14:31;;;;;;;7.80;1.98;;;;;;;;;;4995304;28;25059;-71
2023/10/14 11:16:58;;;;;;;9.68;2.50;;;;;;;;;;4992497;28;25050;-72
2023/10/14 11:19:32;;;;;;;7.13;2.10;;;;;;;;;;4992496;28;25111;-73
2023/10/14 11:21:58;;;;;;;13.45;2.25;;;;;;;;;;4991370;28;25100;-74
2023/10/14 11:24:26;;;;;;;13.52;2.83;;;;;;;;;;4992441;28;25052;-72
2023/10/14 11:26:55;;;;;;;13.02;2.63;;;;;;;;;;4997318;28;25073;-73
2023/10/14 11:29:23;;;;;;;12.40;2.72;;;;;;;;;;4993406;28;25058;-73
2023/10/14 11:31:53;;;;;;;10.23;2.45;;;;;;;;;;4999967;28;25057;-74
2023/10/14 11:34:21;;;;;;;7.75;2.13;;;;;;;;;;5010284;28;25047;-73
2023/10/14 11:36:48;;;;;;;14.05;2.28;;;;;;;;;;4983178;28;25068;-74
2023/10/14 11:39:18;;;;;;;9.98;1.95;;;;;;;;;;4994836;28;25073;-75
2023/10/14 11:41:45;;;;;;;13.45;1.88;;;;;;;;;;4996213;28;25060;-75
2023/10/14 11:44:17;;;;;;;6.82;1.73;;;;;;;;;;4987709;28;25058;-73
2023/10/14 11:46:43;;;;;;;9.00;1.80;;;;;;;;;;4996677;28;25104;-71
2023/10/14 11:49:10;;;;;;;7.45;1.80;;;;;;;;;;4992201;28;25095;-73
2023/10/14 11:51:40;;;;;;;9.30;2.10;;;;;;;;;;4994216;28;25058;-71
2023/10/14 11:54:07;;;;;;;11.10;1.80;;;;;;;;;;4990432;28;25066;-70
2023/10/14 11:56:33;;;;;;;10.75;2.42;;;;;;;;;;4988988;28;25055;-73
2023/10/14 11:59:00;;;;;;;12.98;2.10;;;;;;;;;;4993651;28;25159;-73
2023/10/14 12:01:28;;;;;;;10.02;1.67;;;;;;;;;;4988579;28;25076;-74
2023/10/14 12:03:54;;;;;;;10.50;2.22;;;;;;;;;;4974166;28;25137;-72
2023/10/14 12:06:20;;;;;;;8.20;1.85;;;;;;;;;;4993063;28;25056;-73
2023/10/14 12:08:48;;;;;;;10.65;1.60;;;;;;;;;;4992102;28;25110;-72
2023/10/14 12:11:16;;;;;;;7.88;1.60;;;;;;;;;;4985749;28;25135;-73
2023/10/14 12:13:42;;;;;;;4.38;1.23;;;;;;;;;;4992846;28;25050;-72
2023/10/14 12:16:08;;;;;;;5.38;1.52;;;;;;;;;;4973520;28;25073;-71
2023/10/14 12:18:37;;;;;;;5.85;1.50;;;;;;;;;;4995930;28;25169;-73
2023/10/14 12:21:03;;;;;;;3.55;1.60;;;;;;;;;;4990197;28;25072;-74
2023/10/14 12:23:31;;;;;;;7.03;1.38;;;;;;;;;;4984672;28;25054;-70
2023/10/14 12:25:58;;;;;;;9.68;1.58;;;;;;;;;;4992893;28;25075;-72
2023/10/14 12:28:30;;;;;;;6.00;1.77;;;;;;;;;;4988168;28;25072;-73
2023/10/14 12:30:58;;;;;;;8.63;1.67;;;;;;;;;;4991601;28;25135;-71
2023/10/14 12:33:29;;;;;;;5.07;1.65;;;;;;;;;;4987328;28;25112;-73
2023/10/14 12:35:57;;;;;;;4.05;1.27;;;;;;;;;;4997276;28;25097;-72
2023/10/14 12:38:27;;;;;;;5.03;1.60;;;;;;;;;;4989508;28;25131;-72
2023/10/14 12:40:53;;;;;;;13.02;2.10;;;;;;;;;;4986909;28;25081;-73
2023/10/14 12:43:32;;;;;;;6.63;1.55;;;;;;;;;;4991904;28;25052;-73
2023/10/14 12:46:19;;;;;;;9.13;2.15;;;;;;;;;;4991274;28;25080;-75
2023/10/14 12:48:46;;;;;;;9.13;1.33;;;;;;;;;;4991905;28;25061;-73
2023/10/14 12:51:14;;;;;;;10.38;1.83;;;;;;;;;;4992347;28;25096;-73
2023/10/14 12:53:46;;;;;;;9.50;2.47;;;;;;;;;;4990585;28;25126;-72
2023/10/14 12:56:16;;;;;;;12.52;1.95;;;;;;;;;;4984946;28;25107;-72
2023/10/14 12:58:43;;;;;;;5.20;1.58;;;;;;;;;;4985695;28;25343;-72
2023/10/14 13:01:13;;;;;;;11.10;1.80;;;;;;;;;;4989366;28;25139;-72
2023/10/14 13:03:41;;;;;;;6.25;1.48;;;;;;;;;;4992860;28;25065;-73
2023/10/14 13:06:08;;;;;;;7.20;1.70;;;;;;;;;;4988086;28;25119;-72
2023/10/14 13:08:36;;;;;;;6.45;1.80;;;;;;;;;;4993439;28;25067;-72
2023/10/14 13:11:02;;;;;;;7.20;1.50;;;;;;;;;;4988654;28;25084;-71
2023/10/14 13:13:28;;;;;;;9.52;1.73;;;;;;;;;;4988201;28;25129;-72
2023/10/14 13:15:54;;;;;;;4.40;1.33;;;;;;;;;;4994989;28;25080;-72
2023/10/14 13:18:23;;;;;;;6.70;1.30;;;;;;;;;;4995733;28;25116;-70
2023/10/14 13:20:50;;;;;;;9.60;2.33;;;;;;;;;;4992772;28;25071;-72
2023/10/14 13:23:16;;;;;;;6.45;1.42;;;;;;;;;;4995440;28;25057;-73
2023/10/14 13:25:42;;;;;;;2.50;1.00;;;;;;;;;;4994968;28;25102;-71
2023/10/14 13:28:09;;;;;;;11.18;2.22;;;;;;;;;;4988400;28;25088;-72
2023/10/14 13:30:36;;;;;;;11.57;1.70;;;;;;;;;;4991490;28;25058;-72
2023/10/14 13:33:02;;;;;;;8.30;1.77;;;;;;;;;;4990113;28;25124;-72
2023/10/14 13:35:31;;;;;;;9.85;1.73;;;;;;;;;;4995682;28;25051;-72
2023/10/14 13:37:57;;;;;;;9.38;1.90;;;;;;;;;;4989085;28;25076;-73
2023/10/14 13:40:23;;;;;;;9.38;1.98;;;;;;;;;;4981458;28;25087;-72
2023/10/14 13:42:50;;;;;;;6.40;2.63;;;;;;;;;;4991493;28;25072;-72
2023/10/14 13:45:16;;;;;;;5.63;1.73;;;;;;;;;;4995311;28;25088;-74
2023/10/14 13:47:43;;;;;;;9.35;1.80;;;;;;;;;;4983447;28;25104;-72
2023/10/14 13:50:20;;;;;;;6.97;1.58;;;;;;;;;;4990007;28;25067;-71
2023/10/14 13:52:51;;;;;;;9.18;2.63;;;;;;;;;;4977641;28;25069;-71
2023/10/14 13:55:18;;;;;;;9.45;1.83;;;;;;;;;;4991153;28;25073;-71
2023/10/14 13:57:46;;;;;;;12.30;2.83;;;;;;;;;;4988116;28;25070;-72
2023/10/14 14:00:18;;;;;;;9.45;1.90;;;;;;;;;;4987852;28;25051;-73
2023/10/14 14:02:44;;;;;;;8.88;2.03;;;;;;;;;;4990414;28;25062;-73
2023/10/14 14:05:10;;;;;;;10.00;2.90;;;;;;;;;;4992950;28;25152;-69
2023/10/14 14:07:37;;;;;;;14.95;2.25;;;;;;;;;;4986614;28;25069;-71
2023/10/14 14:10:05;;;;;;;8.82;2.40;;;;;;;;;;4991347;28;25053;-71
2023/10/14 14:12:32;;;;;;;10.68;1.70;;;;;;;;;;4985324;28;24890;-71
2023/10/14 14:14:58;;;;;;;8.32;1.88;;;;;;;;;;4993594;28;25100;-72
2023/10/14 14:17:26;;;;;;;9.57;1.52;;;;;;;;;;4984478;28;25117;-71
2023/10/14 14:19:52;;;;;;;8.32;1.75;;;;;;;;;;4988103;28;25159;-71
2023/10/14 14:22:18;;;;;;;12.50;2.25;;;;;;;;;;4987504;28;25097;-71
2023/10/14 14:24:45;;;;;;;9.98;2.05;;;;;;;;;;4988877;28;25146;-72
2023/10/14 14:27:12;;;;;;;9.25;3.08;;;;;;;;;;4986914;28;25053;-70
2023/10/14 14:29:38;;;;;;;12.30;2.25;;;;;;;;;;4991626;28;25076;-71
2023/10/14 14:32:05;;;;;;;4.35;1.80;;;;;;;;;;4987619;28;25087;-69
2023/10/14 14:34:31;;;;;;;7.50;1.63;;;;;;;;;;4990471;28;25065;-72
2023/10/14 14:36:57;;;;;;;11.85;1.95;;;;;;;;;;4991172;28;25069;-74
2023/10/14 14:39:23;;;;;;;8.43;1.75;;;;;;;;;;4992239;28;25112;-73
2023/10/14 14:42:00;;;;;;;10.65;2.35;;;;;;;;;;4994378;28;25126;-72
2023/10/14 14:44:26;;;;;;;9.38;1.80;;;;;;;;;;4988539;28;25053;-71
2023/10/14 14:46:54;;;;;;;11.88;1.95;;;;;;;;;;4993056;28;25067;-70
2023/10/14 14:49:22;;;;;;;6.38;1.50;;;;;;;;;;4993873;28;25067;-72
2023/10/14 14:51:48;;;;;;;10.75;1.65;;;;;;;;;;4998076;28;25166;-71
2023/10/14 14:54:15;;;;;;;11.93;2.40;;;;;;;;;;4994250;28;25057;-74
2023/10/14 14:56:44;;;;;;;11.73;2.05;;;;;;;;;;4998213;28;25067;-73
2023/10/14 14:59:13;;;;;;;5.85;1.60;;;;;;;;;;4995674;28;25076;-72
2023/10/14 15:01:41;;;;;;;8.63;2.50;;;;;;;;;;4993576;28;25129;-71
2023/10/14 15:04:07;;;;;;;5.10;1.60;;;;;;;;;;4994144;28;25081;-73